sensor_id;sensor_type;location;lat;lon;timestamp;temperature;humidity
33825;DHT22;20127;48.962;8.342;2023-04-06T00:01:23;0.50;85.40
33825;DHT22;20127;48.962;8.342;2023-04-06T00:04:25;0.50;86.30
33825;DHT22;20127;48.962;8.342;2023-04-06T00:07:27;0.40;85.70
33825;DHT22;20127;48.962;8.342;2023-04-06T00:10:31;0.40;86.20
33825;DHT22;20127;48.962;8.342;2023-04-06T00:13:33;0.40;86.30
33825;DHT22;20127;48.962;8.342;2023-04-06T00:16:35;0.30;86.40
33825;DHT22;20127;48.962;8.342;2023-04-06T00:19:37;0.20;86.80
33825;DHT22;20127;48.962;8.342;2023-04-06T00:22:38;0.20;87.20
33825;DHT22;20127;48.962;8.342;2023-04-06T00:25:42;0.20;87.30
33825;DHT22;20127;48.962;8.342;2023-04-06T00:28:44;0.10;87.50
33825;DHT22;20127;48.962;8.342;2023-04-06T00:31:45;0.00;87.90
33825;DHT22;20127;48.962;8.342;2023-04-06T00:34:47;0.00;88.50
33825;DHT22;20127;48.962;8.342;2023-04-06T00:37:49;0.10;88.80
33825;DHT22;20127;48.962;8.342;2023-04-06T00:40:52;0.10;88.90
33825;DHT22;20127;48.962;8.342;2023-04-06T00:43:54;0.10;89.00
33825;DHT22;20127;48.962;8.342;2023-04-06T00:46:56;-0.10;89.30
33825;DHT22;20127;48.962;8.342;2023-04-06T00:49:57;-0.10;90.00
33825;DHT22;20127;48.962;8.342;2023-04-06T00:53:00;-0.10;90.00
33825;DHT22;20127;48.962;8.342;2023-04-06T00:56:03;-0.20;90.20
33825;DHT22;20127;48.962;8.342;2023-04-06T00:59:05;-0.20;90.20
33825;DHT22;20127;48.962;8.342;2023-04-06T01:02:08;-0.10;90.40
33825;DHT22;20127;48.962;8.342;2023-04-06T01:05:10;-0.20;90.30
33825;DHT22;20127;48.962;8.342;2023-04-06T01:08:11;-0.20;90.60
33825;DHT22;20127;48.962;8.342;2023-04-06T01:11:14;-0.30;90.70
33825;DHT22;20127;48.962;8.342;2023-04-06T01:14:16;-0.40;90.80
33825;DHT22;20127;48.962;8.342;2023-04-06T01:17:18;-0.40;91.10
33825;DHT22;20127;48.962;8.342;2023-04-06T01:20:20;-0.40;91.20
33825;DHT22;20127;48.962;8.342;2023-04-06T01:23:23;-0.40;91.40
33825;DHT22;20127;48.962;8.342;2023-04-06T01:26:25;-0.40;91.50
33825;DHT22;20127;48.962;8.342;2023-04-06T01:29:27;-0.40;91.70
33825;DHT22;20127;48.962;8.342;2023-04-06T01:32:29;-0.40;91.70
33825;DHT22;20127;48.962;8.342;2023-04-06T01:35:31;-0.50;91.90
33825;DHT22;20127;48.962;8.342;2023-04-06T01:38:34;-0.50;92.10
33825;DHT22;20127;48.962;8.342;2023-04-06T01:41:36;-0.40;92.20
33825;DHT22;20127;48.962;8.342;2023-04-06T01:44:38;-0.40;92.30
33825;DHT22;20127;48.962;8.342;2023-04-06T01:47:39;-0.40;92.50
33825;DHT22;20127;48.962;8.342;2023-04-06T01:50:42;-0.40;92.60
33825;DHT22;20127;48.962;8.342;2023-04-06T01:53:45;-0.40;92.70
33825;DHT22;20127;48.962;8.342;2023-04-06T01:56:48;-0.50;92.90
33825;DHT22;20127;48.962;8.342;2023-04-06T01:59:51;-0.40;93.00
33825;DHT22;20127;48.962;8.342;2023-04-06T02:02:53;-0.50;93.10
33825;DHT22;20127;48.962;8.342;2023-04-06T02:05:55;-0.50;93.20
33825;DHT22;20127;48.962;8.342;2023-04-06T02:08:58;-0.50;93.30
33825;DHT22;20127;48.962;8.342;2023-04-06T02:12:00;-0.50;93.50
33825;DHT22;20127;48.962;8.342;2023-04-06T02:15:02;-0.50;93.60
33825;DHT22;20127;48.962;8.342;2023-04-06T02:18:04;-0.60;93.60
33825;DHT22;20127;48.962;8.342;2023-04-06T02:21:06;-0.70;93.70
33825;DHT22;20127;48.962;8.342;2023-04-06T02:24:09;-0.80;93.90
33825;DHT22;20127;48.962;8.342;2023-04-06T02:27:11;-0.90;94.10
33825;DHT22;20127;48.962;8.342;2023-04-06T02:30:13;-0.90;94.20
33825;DHT22;20127;48.962;8.342;2023-04-06T02:33:15;-1.00;94.30
33825;DHT22;20127;48.962;8.342;2023-04-06T02:36:16;-1.00;94.50
33825;DHT22;20127;48.962;8.342;2023-04-06T02:39:19;-1.00;94.60
33825;DHT22;20127;48.962;8.342;2023-04-06T02:42:21;-0.90;94.70
33825;DHT22;20127;48.962;8.342;2023-04-06T02:45:23;-0.90;94.70
33825;DHT22;20127;48.962;8.342;2023-04-06T02:48:25;-0.90;94.80
33825;DHT22;20127;48.962;8.342;2023-04-06T02:51:27;-0.90;94.90
33825;DHT22;20127;48.962;8.342;2023-04-06T02:54:30;-0.90;95.00
33825;DHT22;20127;48.962;8.342;2023-04-06T02:57:31;-0.90;95.20
33825;DHT22;20127;48.962;8.342;2023-04-06T03:00:33;-0.90;95.30
33825;DHT22;20127;48.962;8.342;2023-04-06T03:03:36;-0.90;95.40
33825;DHT22;20127;48.962;8.342;2023-04-06T03:06:38;-0.90;95.50
33825;DHT22;20127;48.962;8.342;2023-04-06T03:09:41;-1.00;95.40
33825;DHT22;20127;48.962;8.342;2023-04-06T03:12:43;-1.00;95.50
33825;DHT22;20127;48.962;8.342;2023-04-06T03:15:45;-1.10;95.70
33825;DHT22;20127;48.962;8.342;2023-04-06T03:18:46;-1.10;95.70
33825;DHT22;20127;48.962;8.342;2023-04-06T03:21:48;-1.20;95.80
33825;DHT22;20127;48.962;8.342;2023-04-06T03:24:51;-1.20;95.90
33825;DHT22;20127;48.962;8.342;2023-04-06T03:27:53;-1.30;96.10
33825;DHT22;20127;48.962;8.342;2023-04-06T03:30:55;-1.30;96.10
33825;DHT22;20127;48.962;8.342;2023-04-06T03:33:57;-1.30;96.20
33825;DHT22;20127;48.962;8.342;2023-04-06T03:36:59;-1.30;96.20
33825;DHT22;20127;48.962;8.342;2023-04-06T03:40:03;-1.30;96.40
33825;DHT22;20127;48.962;8.342;2023-04-06T03:43:06;-1.30;96.50
33825;DHT22;20127;48.962;8.342;2023-04-06T03:46:07;-1.40;96.50
33825;DHT22;20127;48.962;8.342;2023-04-06T03:49:09;-1.40;96.50
33825;DHT22;20127;48.962;8.342;2023-04-06T03:52:11;-1.30;96.70
33825;DHT22;20127;48.962;8.342;2023-04-06T03:55:14;-1.40;96.70
33825;DHT22;20127;48.962;8.342;2023-04-06T03:58:16;-1.40;96.90
33825;DHT22;20127;48.962;8.342;2023-04-06T04:01:18;-1.30;97.00
33825;DHT22;20127;48.962;8.342;2023-04-06T04:04:20;-1.30;97.10
33825;DHT22;20127;48.962;8.342;2023-04-06T04:07:21;-1.30;97.20
33825;DHT22;20127;48.962;8.342;2023-04-06T04:10:24;-1.30;97.30
33825;DHT22;20127;48.962;8.342;2023-04-06T04:13:26;-1.30;97.50
33825;DHT22;20127;48.962;8.342;2023-04-06T04:16:28;-1.30;97.60
33825;DHT22;20127;48.962;8.342;2023-04-06T04:19:30;-1.30;97.80
33825;DHT22;20127;48.962;8.342;2023-04-06T04:22:32;-1.30;97.90
33825;DHT22;20127;48.962;8.342;2023-04-06T04:25:35;-1.40;97.90
33825;DHT22;20127;48.962;8.342;2023-04-06T04:28:37;-1.40;98.00
33825;DHT22;20127;48.962;8.342;2023-04-06T04:31:39;-1.50;98.20
33825;DHT22;20127;48.962;8.342;2023-04-06T04:34:40;-1.60;98.40
33825;DHT22;20127;48.962;8.342;2023-04-06T04:37:42;-1.50;98.60
33825;DHT22;20127;48.962;8.342;2023-04-06T04:40:45;-1.50;98.50
33825;DHT22;20127;48.962;8.342;2023-04-06T04:43:47;-1.40;98.70
33825;DHT22;20127;48.962;8.342;2023-04-06T04:46:49;-1.40;98.70
33825;DHT22;20127;48.962;8.342;2023-04-06T04:49:51;-1.40;98.90
33825;DHT22;20127;48.962;8.342;2023-04-06T04:52:53;-1.30;98.90
33825;DHT22;20127;48.962;8.342;2023-04-06T04:55:56;-1.30;98.90
33825;DHT22;20127;48.962;8.342;2023-04-06T04:58:58;-1.30;99.10
33825;DHT22;20127;48.962;8.342;2023-04-06T05:01:59;-1.20;99.20
33825;DHT22;20127;48.962;8.342;2023-04-06T05:05:01;-1.20;99.30
33825;DHT22;20127;48.962;8.342;2023-04-06T05:08:03;-1.20;99.40
33825;DHT22;20127;48.962;8.342;2023-04-06T05:11:07;-1.20;99.60
33825;DHT22;20127;48.962;8.342;2023-04-06T05:14:09;-1.20;99.80
33825;DHT22;20127;48.962;8.342;2023-04-06T05:17:11;-1.20;99.90
33825;DHT22;20127;48.962;8.342;2023-04-06T05:20:13;-1.10;99.90
33825;DHT22;20127;48.962;8.342;2023-04-06T05:23:15;-0.90;99.90
33825;DHT22;20127;48.962;8.342;2023-04-06T05:26:18;-0.70;99.90
33825;DHT22;20127;48.962;8.342;2023-04-06T05:29:20;-0.60;99.90
33825;DHT22;20127;48.962;8.342;2023-04-06T05:32:22;-0.60;99.90
33825;DHT22;20127;48.962;8.342;2023-04-06T05:35:25;-0.60;99.90
33825;DHT22;20127;48.962;8.342;2023-04-06T05:38:26;-0.40;99.90
33825;DHT22;20127;48.962;8.342;2023-04-06T05:41:30;-0.40;99.90
33825;DHT22;20127;48.962;8.342;2023-04-06T05:44:31;-0.20;99.90
33825;DHT22;20127;48.962;8.342;2023-04-06T05:47:33;-0.10;99.90
33825;DHT22;20127;48.962;8.342;2023-04-06T05:50:35;0.10;99.90
33825;DHT22;20127;48.962;8.342;2023-04-06T05:53:37;0.30;99.90
33825;DHT22;20127;48.962;8.342;2023-04-06T05:56:40;0.40;99.90
33825;DHT22;20127;48.962;8.342;2023-04-06T05:59:42;0.60;99.90
33825;DHT22;20127;48.962;8.342;2023-04-06T06:02:44;0.70;99.90
33825;DHT22;20127;48.962;8.342;2023-04-06T06:05:46;1.00;99.90
33825;DHT22;20127;48.962;8.342;2023-04-06T06:08:48;1.20;99.90
33825;DHT22;20127;48.962;8.342;2023-04-06T06:11:51;1.30;99.90
33825;DHT22;20127;48.962;8.342;2023-04-06T06:14:53;1.60;99.90
33825;DHT22;20127;48.962;8.342;2023-04-06T06:17:55;1.80;99.90
33825;DHT22;20127;48.962;8.342;2023-04-06T06:20:57;2.00;99.90
33825;DHT22;20127;48.962;8.342;2023-04-06T06:23:59;2.30;99.90
33825;DHT22;20127;48.962;8.342;2023-04-06T06:27:02;2.60;99.90
33825;DHT22;20127;48.962;8.342;2023-04-06T06:30:05;2.80;99.90
33825;DHT22;20127;48.962;8.342;2023-04-06T06:33:07;3.10;99.90
33825;DHT22;20127;48.962;8.342;2023-04-06T06:36:09;3.30;99.90
33825;DHT22;20127;48.962;8.342;2023-04-06T06:39:11;3.60;99.90
33825;DHT22;20127;48.962;8.342;2023-04-06T06:42:14;3.80;99.90
33825;DHT22;20127;48.962;8.342;2023-04-06T06:45:16;4.10;99.90
33825;DHT22;20127;48.962;8.342;2023-04-06T06:48:17;4.40;99.90
33825;DHT22;20127;48.962;8.342;2023-04-06T06:51:19;4.60;99.90
33825;DHT22;20127;48.962;8.342;2023-04-06T06:54:21;4.90;99.90
33825;DHT22;20127;48.962;8.342;2023-04-06T06:57:25;5.20;99.90
33825;DHT22;20127;48.962;8.342;2023-04-06T07:00:27;5.60;99.90
33825;DHT22;20127;48.962;8.342;2023-04-06T07:03:29;5.90;99.90
33825;DHT22;20127;48.962;8.342;2023-04-06T07:06:31;6.20;99.90
33825;DHT22;20127;48.962;8.342;2023-04-06T07:09:33;6.60;99.90
33825;DHT22;20127;48.962;8.342;2023-04-06T07:12:36;6.80;99.30
33825;DHT22;20127;48.962;8.342;2023-04-06T07:15:38;7.20;99.10
33825;DHT22;20127;48.962;8.342;2023-04-06T07:18:39;7.60;98.50
33825;DHT22;20127;48.962;8.342;2023-04-06T07:21:41;7.90;98.20
33825;DHT22;20127;48.962;8.342;2023-04-06T07:24:43;8.30;97.70
33825;DHT22;20127;48.962;8.342;2023-04-06T07:27:46;8.70;97.10
33825;DHT22;20127;48.962;8.342;2023-04-06T07:30:48;9.40;96.40
33825;DHT22;20127;48.962;8.342;2023-04-06T07:33:50;10.30;95.00
33825;DHT22;20127;48.962;8.342;2023-04-06T07:36:53;11.00;93.50
33825;DHT22;20127;48.962;8.342;2023-04-06T07:39:55;11.70;92.20
33825;DHT22;20127;48.962;8.342;2023-04-06T07:42:58;12.20;90.70
33825;DHT22;20127;48.962;8.342;2023-04-06T07:46:00;12.80;87.80
33825;DHT22;20127;48.962;8.342;2023-04-06T07:49:02;13.40;85.60
33825;DHT22;20127;48.962;8.342;2023-04-06T07:52:04;14.10;81.90
33825;DHT22;20127;48.962;8.342;2023-04-06T07:55:06;14.40;78.70
33825;DHT22;20127;48.962;8.342;2023-04-06T07:58:10;14.80;76.40
33825;DHT22;20127;48.962;8.342;2023-04-06T08:01:11;15.00;73.50
33825;DHT22;20127;48.962;8.342;2023-04-06T08:04:13;15.40;72.10
33825;DHT22;20127;48.962;8.342;2023-04-06T08:07:15;15.70;69.10
33825;DHT22;20127;48.962;8.342;2023-04-06T08:10:17;16.00;67.90
33825;DHT22;20127;48.962;8.342;2023-04-06T08:13:20;16.40;66.20
33825;DHT22;20127;48.962;8.342;2023-04-06T08:16:22;16.40;64.00
33825;DHT22;20127;48.962;8.342;2023-04-06T08:19:24;16.50;63.80
33825;DHT22;20127;48.962;8.342;2023-04-06T08:22:26;16.60;62.80
33825;DHT22;20127;48.962;8.342;2023-04-06T08:25:28;16.80;61.70
33825;DHT22;20127;48.962;8.342;2023-04-06T08:28:31;16.80;61.10
33825;DHT22;20127;48.962;8.342;2023-04-06T08:31:35;16.90;60.10
33825;DHT22;20127;48.962;8.342;2023-04-06T08:34:37;16.70;58.90
33825;DHT22;20127;48.962;8.342;2023-04-06T08:37:38;16.50;59.10
33825;DHT22;20127;48.962;8.342;2023-04-06T08:40:41;16.30;59.10
33825;DHT22;20127;48.962;8.342;2023-04-06T08:43:47;16.20;59.50
33825;DHT22;20127;48.962;8.342;2023-04-06T08:46:50;16.20;59.30
33825;DHT22;20127;48.962;8.342;2023-04-06T08:49:53;16.30;59.10
33825;DHT22;20127;48.962;8.342;2023-04-06T08:52:56;16.50;58.40
33825;DHT22;20127;48.962;8.342;2023-04-06T08:55:59;16.50;57.30
33825;DHT22;20127;48.962;8.342;2023-04-06T08:59:03;16.60;56.70
33825;DHT22;20127;48.962;8.342;2023-04-06T09:02:05;16.90;56.40
33825;DHT22;20127;48.962;8.342;2023-04-06T09:05:08;17.30;55.80
33825;DHT22;20127;48.962;8.342;2023-04-06T09:08:11;17.80;54.90
33825;DHT22;20127;48.962;8.342;2023-04-06T09:11:13;18.10;53.90
33825;DHT22;20127;48.962;8.342;2023-04-06T09:14:17;18.50;53.00
33825;DHT22;20127;48.962;8.342;2023-04-06T09:17:22;18.90;51.30
33825;DHT22;20127;48.962;8.342;2023-04-06T09:20:25;18.80;51.60
33825;DHT22;20127;48.962;8.342;2023-04-06T09:23:28;18.90;51.10
33825;DHT22;20127;48.962;8.342;2023-04-06T09:26:30;19.00;50.50
33825;DHT22;20127;48.962;8.342;2023-04-06T09:29:35;19.10;50.40
33825;DHT22;20127;48.962;8.342;2023-04-06T09:32:48;19.20;49.50
33825;DHT22;20127;48.962;8.342;2023-04-06T09:35:50;19.40;49.20
33825;DHT22;20127;48.962;8.342;2023-04-06T09:38:53;19.50;48.80
33825;DHT22;20127;48.962;8.342;2023-04-06T09:41:55;19.40;48.40
33825;DHT22;20127;48.962;8.342;2023-04-06T09:44:59;19.10;48.60
33825;DHT22;20127;48.962;8.342;2023-04-06T09:48:01;19.00;48.60
33825;DHT22;20127;48.962;8.342;2023-04-06T09:51:05;18.90;48.40
33825;DHT22;20127;48.962;8.342;2023-04-06T09:54:09;18.40;47.50
33825;DHT22;20127;48.962;8.342;2023-04-06T09:57:19;18.00;47.80
33825;DHT22;20127;48.962;8.342;2023-04-06T10:00:25;17.70;48.50
33825;DHT22;20127;48.962;8.342;2023-04-06T10:03:34;17.80;49.50
33825;DHT22;20127;48.962;8.342;2023-04-06T10:06:40;17.90;49.60
33825;DHT22;20127;48.962;8.342;2023-04-06T10:09:43;18.00;49.20
33825;DHT22;20127;48.962;8.342;2023-04-06T10:12:48;18.10;48.90
33825;DHT22;20127;48.962;8.342;2023-04-06T10:15:52;18.40;48.20
33825;DHT22;20127;48.962;8.342;2023-04-06T10:18:57;18.40;48.00
33825;DHT22;20127;48.962;8.342;2023-04-06T10:22:02;18.60;47.70
33825;DHT22;20127;48.962;8.342;2023-04-06T10:25:05;18.60;47.80
33825;DHT22;20127;48.962;8.342;2023-04-06T10:28:08;18.90;47.80
33825;DHT22;20127;48.962;8.342;2023-04-06T10:31:11;19.20;47.60
33825;DHT22;20127;48.962;8.342;2023-04-06T10:34:13;19.30;46.60
33825;DHT22;20127;48.962;8.342;2023-04-06T10:37:16;19.20;46.20
33825;DHT22;20127;48.962;8.342;2023-04-06T10:40:23;19.20;45.90
33825;DHT22;20127;48.962;8.342;2023-04-06T10:43:26;19.50;46.10
33825;DHT22;20127;48.962;8.342;2023-04-06T10:46:30;19.60;45.80
33825;DHT22;20127;48.962;8.342;2023-04-06T10:49:32;19.70;44.90
33825;DHT22;20127;48.962;8.342;2023-04-06T10:52:34;19.70;44.10
33825;DHT22;20127;48.962;8.342;2023-04-06T10:55:39;19.60;43.80
33825;DHT22;20127;48.962;8.342;2023-04-06T10:58:44;19.30;43.70
33825;DHT22;20127;48.962;8.342;2023-04-06T11:01:49;19.50;43.50
33825;DHT22;20127;48.962;8.342;2023-04-06T11:04:55;20.10;43.00
33825;DHT22;20127;48.962;8.342;2023-04-06T11:07:57;20.30;41.80
33825;DHT22;20127;48.962;8.342;2023-04-06T11:11:06;20.40;41.70
33825;DHT22;20127;48.962;8.342;2023-04-06T11:14:09;20.20;40.20
33825;DHT22;20127;48.962;8.342;2023-04-06T11:17:13;20.20;40.80
33825;DHT22;20127;48.962;8.342;2023-04-06T11:20:15;20.30;40.40
33825;DHT22;20127;48.962;8.342;2023-04-06T11:23:23;20.30;40.30
33825;DHT22;20127;48.962;8.342;2023-04-06T11:26:26;20.10;39.80
33825;DHT22;20127;48.962;8.342;2023-04-06T11:29:28;19.90;39.60
33825;DHT22;20127;48.962;8.342;2023-04-06T11:32:39;19.90;39.80
33825;DHT22;20127;48.962;8.342;2023-04-06T11:35:41;20.00;39.50
33825;DHT22;20127;48.962;8.342;2023-04-06T11:38:43;20.20;39.80
33825;DHT22;20127;48.962;8.342;2023-04-06T11:41:47;20.30;39.60
33825;DHT22;20127;48.962;8.342;2023-04-06T11:44:51;20.50;39.60
33825;DHT22;20127;48.962;8.342;2023-04-06T11:47:58;20.80;39.30
33825;DHT22;20127;48.962;8.342;2023-04-06T11:51:01;20.80;39.20
33825;DHT22;20127;48.962;8.342;2023-04-06T11:54:05;21.00;39.10
33825;DHT22;20127;48.962;8.342;2023-04-06T11:57:08;21.10;39.10
33825;DHT22;20127;48.962;8.342;2023-04-06T12:00:11;21.00;38.40
33825;DHT22;20127;48.962;8.342;2023-04-06T12:03:15;20.30;38.30
33825;DHT22;20127;48.962;8.342;2023-04-06T12:06:17;19.90;38.20
33825;DHT22;20127;48.962;8.342;2023-04-06T12:09:19;19.20;38.70
33825;DHT22;20127;48.962;8.342;2023-04-06T12:12:21;19.10;38.90
33825;DHT22;20127;48.962;8.342;2023-04-06T12:15:23;19.30;39.40
33825;DHT22;20127;48.962;8.342;2023-04-06T12:18:26;19.60;38.40
33825;DHT22;20127;48.962;8.342;2023-04-06T12:21:28;19.60;38.10
33825;DHT22;20127;48.962;8.342;2023-04-06T12:24:31;19.90;38.10
33825;DHT22;20127;48.962;8.342;2023-04-06T12:27:33;19.60;37.80
33825;DHT22;20127;48.962;8.342;2023-04-06T12:30:35;20.00;37.60
33825;DHT22;20127;48.962;8.342;2023-04-06T12:33:38;20.30;37.40
33825;DHT22;20127;48.962;8.342;2023-04-06T12:36:40;20.50;37.40
33825;DHT22;20127;48.962;8.342;2023-04-06T12:39:42;20.20;36.30
33825;DHT22;20127;48.962;8.342;2023-04-06T12:42:44;19.80;36.80
33825;DHT22;20127;48.962;8.342;2023-04-06T12:45:47;19.90;36.90
33825;DHT22;20127;48.962;8.342;2023-04-06T12:48:51;20.00;36.40
33825;DHT22;20127;48.962;8.342;2023-04-06T12:51:54;20.20;36.50
33825;DHT22;20127;48.962;8.342;2023-04-06T12:54:55;20.60;36.00
33825;DHT22;20127;48.962;8.342;2023-04-06T12:57:58;20.00;35.00
33825;DHT22;20127;48.962;8.342;2023-04-06T13:01:00;19.70;35.80
33825;DHT22;20127;48.962;8.342;2023-04-06T13:04:08;19.90;34.90
33825;DHT22;20127;48.962;8.342;2023-04-06T13:07:10;19.70;34.30
33825;DHT22;20127;48.962;8.342;2023-04-06T13:10:11;19.50;33.90
33825;DHT22;20127;48.962;8.342;2023-04-06T13:13:13;19.40;34.00
33825;DHT22;20127;48.962;8.342;2023-04-06T13:16:15;19.60;34.30
33825;DHT22;20127;48.962;8.342;2023-04-06T13:19:18;19.60;34.20
33825;DHT22;20127;48.962;8.342;2023-04-06T13:22:20;19.70;33.80
33825;DHT22;20127;48.962;8.342;2023-04-06T13:25:22;19.20;33.60
33825;DHT22;20127;48.962;8.342;2023-04-06T13:28:24;19.20;33.60
33825;DHT22;20127;48.962;8.342;2023-04-06T13:31:26;19.50;34.00
33825;DHT22;20127;48.962;8.342;2023-04-06T13:34:29;19.70;33.60
33825;DHT22;20127;48.962;8.342;2023-04-06T13:37:31;19.80;33.50
33825;DHT22;20127;48.962;8.342;2023-04-06T13:40:33;19.80;33.60
33825;DHT22;20127;48.962;8.342;2023-04-06T13:43:35;19.70;33.50
33825;DHT22;20127;48.962;8.342;2023-04-06T13:46:36;19.40;33.70
33825;DHT22;20127;48.962;8.342;2023-04-06T13:49:40;19.50;34.30
33825;DHT22;20127;48.962;8.342;2023-04-06T13:52:42;19.60;34.10
33825;DHT22;20127;48.962;8.342;2023-04-06T13:55:47;19.80;34.30
33825;DHT22;20127;48.962;8.342;2023-04-06T14:02:57;19.50;34.00
33825;DHT22;20127;48.962;8.342;2023-04-06T14:10:16;19.20;35.10
33825;DHT22;20127;48.962;8.342;2023-04-06T14:17:42;18.90;36.10
33825;DHT22;20127;48.962;8.342;2023-04-06T14:20:57;18.80;35.60
33825;DHT22;20127;48.962;8.342;2023-04-06T14:24:08;18.40;36.40
33825;DHT22;20127;48.962;8.342;2023-04-06T14:31:13;18.20;37.00
33825;DHT22;20127;48.962;8.342;2023-04-06T14:34:32;18.00;37.30
33825;DHT22;20127;48.962;8.342;2023-04-06T14:37:38;18.10;37.30
33825;DHT22;20127;48.962;8.342;2023-04-06T14:40:57;18.10;37.40
33825;DHT22;20127;48.962;8.342;2023-04-06T14:43:59;17.80;37.50
33825;DHT22;20127;48.962;8.342;2023-04-06T14:47:03;17.50;37.80
33825;DHT22;20127;48.962;8.342;2023-04-06T14:50:27;17.50;38.30
33825;DHT22;20127;48.962;8.342;2023-04-06T14:57:32;17.30;38.50
33825;DHT22;20127;48.962;8.342;2023-04-06T15:01:15;17.10;38.70
33825;DHT22;20127;48.962;8.342;2023-04-06T15:04:48;17.00;39.10
33825;DHT22;20127;48.962;8.342;2023-04-06T15:11:51;16.80;40.00
33825;DHT22;20127;48.962;8.342;2023-04-06T15:14:54;16.80;39.90
33825;DHT22;20127;48.962;8.342;2023-04-06T15:17:56;16.70;39.90
33825;DHT22;20127;48.962;8.342;2023-04-06T15:21:00;16.70;40.00
33825;DHT22;20127;48.962;8.342;2023-04-06T15:24:01;16.50;40.40
33825;DHT22;20127;48.962;8.342;2023-04-06T15:27:06;16.40;40.70
33825;DHT22;20127;48.962;8.342;2023-04-06T15:30:09;16.40;41.00
33825;DHT22;20127;48.962;8.342;2023-04-06T15:33:11;16.30;41.30
33825;DHT22;20127;48.962;8.342;2023-04-06T15:36:22;16.30;41.70
33825;DHT22;20127;48.962;8.342;2023-04-06T15:39:24;16.30;42.20
33825;DHT22;20127;48.962;8.342;2023-04-06T15:42:26;16.10;42.30
33825;DHT22;20127;48.962;8.342;2023-04-06T15:45:28;16.10;42.60
33825;DHT22;20127;48.962;8.342;2023-04-06T15:48:30;16.20;42.80
33825;DHT22;20127;48.962;8.342;2023-04-06T15:51:34;16.00;43.00
33825;DHT22;20127;48.962;8.342;2023-04-06T15:54:36;16.00;43.40
33825;DHT22;20127;48.962;8.342;2023-04-06T15:57:40;15.90;44.20
33825;DHT22;20127;48.962;8.342;2023-04-06T16:00:42;15.90;44.90
33825;DHT22;20127;48.962;8.342;2023-04-06T16:03:44;16.00;44.90
33825;DHT22;20127;48.962;8.342;2023-04-06T16:06:48;16.10;44.70
33825;DHT22;20127;48.962;8.342;2023-04-06T16:09:50;16.00;44.70
33825;DHT22;20127;48.962;8.342;2023-04-06T16:12:52;15.90;44.80
33825;DHT22;20127;48.962;8.342;2023-04-06T16:15:53;15.80;45.00
33825;DHT22;20127;48.962;8.342;2023-04-06T16:18:55;15.60;45.00
33825;DHT22;20127;48.962;8.342;2023-04-06T16:21:58;15.70;45.20
33825;DHT22;20127;48.962;8.342;2023-04-06T16:25:00;15.60;45.50
33825;DHT22;20127;48.962;8.342;2023-04-06T16:28:02;15.50;45.90
33825;DHT22;20127;48.962;8.342;2023-04-06T16:31:04;15.40;46.20
33825;DHT22;20127;48.962;8.342;2023-04-06T16:34:06;15.20;46.50
33825;DHT22;20127;48.962;8.342;2023-04-06T16:37:09;15.20;46.80
33825;DHT22;20127;48.962;8.342;2023-04-06T16:40:11;15.00;46.90
33825;DHT22;20127;48.962;8.342;2023-04-06T16:43:14;14.80;47.00
33825;DHT22;20127;48.962;8.342;2023-04-06T16:46:16;14.80;47.20
33825;DHT22;20127;48.962;8.342;2023-04-06T16:49:18;14.60;47.10
33825;DHT22;20127;48.962;8.342;2023-04-06T16:52:21;14.40;47.00
33825;DHT22;20127;48.962;8.342;2023-04-06T16:55:23;14.20;47.50
33825;DHT22;20127;48.962;8.342;2023-04-06T16:58:25;14.10;48.00
33825;DHT22;20127;48.962;8.342;2023-04-06T17:01:27;14.10;48.50
33825;DHT22;20127;48.962;8.342;2023-04-06T17:04:30;14.10;49.00
33825;DHT22;20127;48.962;8.342;2023-04-06T17:07:33;13.90;49.40
33825;DHT22;20127;48.962;8.342;2023-04-06T17:10:35;13.90;49.90
33825;DHT22;20127;48.962;8.342;2023-04-06T17:13:37;13.80;50.20
33825;DHT22;20127;48.962;8.342;2023-04-06T17:16:39;13.70;50.50
33825;DHT22;20127;48.962;8.342;2023-04-06T17:19:41;13.60;50.80
33825;DHT22;20127;48.962;8.342;2023-04-06T17:22:47;13.40;51.00
33825;DHT22;20127;48.962;8.342;2023-04-06T17:25:49;13.30;51.00
33825;DHT22;20127;48.962;8.342;2023-04-06T17:28:51;13.30;51.20
33825;DHT22;20127;48.962;8.342;2023-04-06T17:31:58;13.20;51.30
33825;DHT22;20127;48.962;8.342;2023-04-06T17:35:00;13.20;51.70
33825;DHT22;20127;48.962;8.342;2023-04-06T17:38:03;13.20;52.00
33825;DHT22;20127;48.962;8.342;2023-04-06T17:41:06;13.00;52.60
33825;DHT22;20127;48.962;8.342;2023-04-06T17:44:07;13.00;53.10
33825;DHT22;20127;48.962;8.342;2023-04-06T17:47:12;12.80;53.50
33825;DHT22;20127;48.962;8.342;2023-04-06T17:50:14;12.70;54.30
33825;DHT22;20127;48.962;8.342;2023-04-06T17:53:17;12.60;54.70
33825;DHT22;20127;48.962;8.342;2023-04-06T17:56:21;12.50;55.10
33825;DHT22;20127;48.962;8.342;2023-04-06T17:59:23;12.40;55.60
33825;DHT22;20127;48.962;8.342;2023-04-06T18:02:25;12.40;56.00
33825;DHT22;20127;48.962;8.342;2023-04-06T18:05:27;12.30;56.80
33825;DHT22;20127;48.962;8.342;2023-04-06T18:08:33;12.20;57.20
33825;DHT22;20127;48.962;8.342;2023-04-06T18:11:35;12.10;58.50
33825;DHT22;20127;48.962;8.342;2023-04-06T18:14:39;11.90;59.50
33825;DHT22;20127;48.962;8.342;2023-04-06T18:17:42;11.70;60.40
33825;DHT22;20127;48.962;8.342;2023-04-06T18:20:45;11.70;60.80
33825;DHT22;20127;48.962;8.342;2023-04-06T18:23:48;11.60;61.50
33825;DHT22;20127;48.962;8.342;2023-04-06T18:26:50;11.60;61.90
33825;DHT22;20127;48.962;8.342;2023-04-06T18:29:52;11.60;62.40
33825;DHT22;20127;48.962;8.342;2023-04-06T18:32:54;11.50;62.80
33825;DHT22;20127;48.962;8.342;2023-04-06T18:35:56;11.40;63.50
33825;DHT22;20127;48.962;8.342;2023-04-06T18:39:02;11.30;65.10
33825;DHT22;20127;48.962;8.342;2023-04-06T18:42:04;11.20;65.40
33825;DHT22;20127;48.962;8.342;2023-04-06T18:45:07;11.10;65.60
33825;DHT22;20127;48.962;8.342;2023-04-06T18:48:09;11.10;66.10
33825;DHT22;20127;48.962;8.342;2023-04-06T18:51:13;11.00;66.30
33825;DHT22;20127;48.962;8.342;2023-04-06T18:54:21;10.90;67.10
33825;DHT22;20127;48.962;8.342;2023-04-06T18:57:22;10.80;67.90
33825;DHT22;20127;48.962;8.342;2023-04-06T19:00:24;10.80;68.50
33825;DHT22;20127;48.962;8.342;2023-04-06T19:03:26;10.70;69.60
33825;DHT22;20127;48.962;8.342;2023-04-06T19:06:28;10.60;70.70
33825;DHT22;20127;48.962;8.342;2023-04-06T19:09:32;10.50;71.80
33825;DHT22;20127;48.962;8.342;2023-04-06T19:12:34;10.40;72.70
33825;DHT22;20127;48.962;8.342;2023-04-06T19:15:39;10.30;73.70
33825;DHT22;20127;48.962;8.342;2023-04-06T19:18:41;10.20;74.90
33825;DHT22;20127;48.962;8.342;2023-04-06T19:21:44;10.10;76.00
33825;DHT22;20127;48.962;8.342;2023-04-06T19:24:48;10.10;77.20
33825;DHT22;20127;48.962;8.342;2023-04-06T19:27:50;10.00;78.30
33825;DHT22;20127;48.962;8.342;2023-04-06T19:30:52;9.90;79.50
33825;DHT22;20127;48.962;8.342;2023-04-06T19:33:54;9.80;80.70
33825;DHT22;20127;48.962;8.342;2023-04-06T19:36:56;9.80;82.20
33825;DHT22;20127;48.962;8.342;2023-04-06T19:39:59;9.80;84.00
33825;DHT22;20127;48.962;8.342;2023-04-06T19:43:01;9.70;85.40